Time;durP1;ratioP1;P1;durP2;ratioP2;P2;SDS_P1;SDS_P2;PMS_P1;PMS_P2;Temp;Humidity;BMP_temperature;BMP_pressure;BME280_temperature;BME280_humidity;BME280_pressure;Samples;Min_cycle;Max_cycle;Signal;HPM_P1;HPM_P2
2022/08/25 05:05:36;;;;;;;;;;;;;;;23.50;55.66;96848.81;4185651;28;10438;-61
2022/08/25 05:07:39;;;;;;;;;;;;;;;23.78;55.40;96848.25;4180448;28;6425;-62
2022/08/25 05:09:42;;;;;;;;;;;;;;;23.99;54.53;96848.13;4173805;28;5878;-62
2022/08/25 05:11:45;;;;;;;;;;;;;;;24.13;54.60;96849.16;4172710;28;5749;-62
2022/08/25 05:13:51;;;;;;;;;;;;;;;24.24;54.19;96853.41;4175101;28;6326;-62
2022/08/25 05:15:56;;;;;;;;;;;;;;;24.34;53.98;96853.38;4176337;28;5748;-64
2022/08/25 05:18:01;;;;;;;;;;;;;;;24.44;53.97;96851.69;4174851;28;6431;-61
2022/08/25 05:20:05;;;;;;;;;;;;;;;24.53;53.98;96855.41;4175121;28;5750;-61
2022/08/25 05:22:09;;;;;;;;;;;;;;;24.57;53.35;96856.47;4176694;28;5849;-61
2022/08/25 05:24:12;;;;;;;;;;;;;;;24.61;53.24;96865.63;4173993;28;5819;-64
2022/08/25 05:26:18;;;;;;;;;;;;;;;24.65;53.57;96872.09;4173763;28;6076;-63
2022/08/25 05:28:23;;;;;;;;;;;;;;;24.66;53.34;96863.69;4170644;28;5810;-62
2022/08/25 05:30:26;;;;;;;;;;;;;;;24.70;53.21;96863.97;4177762;28;5753;-62
2022/08/25 05:32:29;;;;;;;;;;;;;;;24.73;53.28;96862.59;4168893;28;5867;-62
2022/08/25 05:34:32;;;;;;;;;;;;;;;24.74;52.87;96865.00;4170159;28;6543;-62
2022/08/25 05:36:35;;;;;;;;;;;;;;;24.77;52.74;96858.22;4171657;28;5752;-62
2022/08/25 05:38:41;;;;;;;;;;;;;;;24.78;52.68;96863.34;4189393;28;5867;-62
2022/08/25 05:54:04;;;;;;;;;;;;;;;24.79;52.81;96875.75;4199128;27;10288;-64
2022/08/25 05:56:07;;;;;;;;;;;;;;;24.83;52.48;96868.72;4197816;28;5814;-65
2022/08/25 05:58:10;;;;;;;;;;;;;;;24.87;52.38;96872.47;4197276;28;5720;-64
2022/08/25 06:00:18;;;;;;;;;;;;;;;24.87;52.10;96863.53;4196604;28;5654;-64
2022/08/25 06:04:50;;;;;;;;;;;;;;;24.84;52.21;96856.00;4179045;28;5708;-64
2022/08/25 06:06:54;;;;;;;;;;;;;;;24.83;52.12;96862.50;4179325;28;5688;-64
2022/08/25 06:08:57;;;;;;;;;;;;;;;24.80;51.84;96861.16;4179034;28;6509;-64
2022/08/25 06:11:01;;;;;;;;;;;;;;;24.79;52.06;96856.84;4163620;28;7050;-65
2022/08/25 06:13:04;;;;;;;;;;;;;;;24.79;52.14;96861.44;4162098;28;5712;-65
2022/08/25 06:15:09;;;;;;;;;;;;;;;24.84;51.95;96866.81;4162789;28;5838;-64
2022/08/25 06:17:12;;;;;;;;;;;;;;;24.89;51.55;96866.75;4162723;28;5711;-64
2022/08/25 06:19:15;;;;;;;;;;;;;;;24.93;51.31;96874.06;4162317;28;5151;-64
2022/08/25 06:21:18;;;;;;;;;;;;;;;24.98;51.18;96871.28;4162215;28;5823;-64
2022/08/25 06:23:22;;;;;;;;;;;;;;;25.02;51.02;96874.25;4162418;28;5715;-64
2022/08/25 06:25:27;;;;;;;;;;;;;;;25.04;51.21;96874.00;4162565;28;5824;-65
2022/08/25 06:27:31;;;;;;;;;;;;;;;25.07;51.18;96873.41;4162113;28;5696;-65
2022/08/25 06:29:34;;;;;;;;;;;;;;;25.09;51.11;96871.25;4161785;28;5704;-64
2022/08/25 06:31:41;;;;;;;;;;;;;;;25.11;50.66;96860.94;4162296;28;5818;-65
2022/08/25 06:33:44;;;;;;;;;;;;;;;25.13;50.83;96867.66;4162172;28;6447;-65
2022/08/25 06:35:47;;;;;;;;;;;;;;;25.15;50.86;96865.50;4162568;28;5798;-64
2022/08/25 06:37:50;;;;;;;;;;;;;;;25.17;50.76;96870.63;4162240;28;5724;-65
2022/08/25 06:39:53;;;;;;;;;;;;;;;25.17;50.66;96851.69;4162156;28;5699;-65
2022/08/25 06:41:58;;;;;;;;;;;;;;;25.14;50.43;96863.06;4196843;28;5836;-65
2022/08/25 06:44:03;;;;;;;;;;;;;;;25.15;50.47;96859.28;4196727;28;5708;-65
2022/08/25 06:46:11;;;;;;;;;;;;;;;25.15;49.91;96859.28;4197149;28;7840;-65
2022/08/25 06:48:14;;;;;;;;;;;;;;;25.15;50.10;96864.72;4197119;28;5722;-63
2022/08/25 06:50:17;;;;;;;;;;;;;;;25.14;50.26;96865.75;4192709;28;5834;-64
2022/08/25 06:52:20;;;;;;;;;;;;;;;25.15;49.76;96870.91;4196740;28;5791;-64
2022/08/25 06:54:31;;;;;;;;;;;;;;;25.16;49.67;96871.72;4192741;28;5756;-65
2022/08/25 06:56:34;;;;;;;;;;;;;;;25.14;49.38;96868.47;4185703;28;5797;-65
2022/08/25 06:58:39;;;;;;;;;;;;;;;25.13;49.18;96867.66;4185810;28;7387;-65
2022/08/25 07:00:43;;;;;;;;;;;;;;;25.10;49.32;96870.16;4199755;28;5709;-65
2022/08/25 07:02:47;;;;;;;;;;;;;;;25.08;49.43;96877.75;4202418;28;5756;-66
2022/08/25 07:04:52;;;;;;;;;;;;;;;25.10;49.54;96870.16;4202643;28;5692;-65
2022/08/25 07:06:55;;;;;;;;;;;;;;;25.12;49.15;96879.59;4202418;28;5090;-65
2022/08/25 07:08:58;;;;;;;;;;;;;;;25.14;49.17;96879.28;4202327;28;5749;-65
2022/08/25 07:11:06;;;;;;;;;;;;;;;25.15;49.10;96880.94;4202264;28;5690;-65
2022/08/25 07:13:18;;;;;;;;;;;;;;;25.17;49.27;96881.44;4201772;28;5971;-65
2022/08/25 07:15:21;;;;;;;;;;;;;;;25.16;49.02;96877.94;4202162;28;5697;-65
2022/08/25 07:17:26;;;;;;;;;;;;;;;25.15;49.17;96868.22;4202336;28;5713;-65
2022/08/25 07:19:29;;;;;;;;;;;;;;;25.18;48.94;96877.66;4202315;28;5748;-65
2022/08/25 07:21:35;;;;;;;;;;;;;;;25.17;48.93;96873.34;4202048;28;5691;-65
2022/08/25 07:23:38;;;;;;;;;;;;;;;25.17;48.83;96868.72;4201895;28;5785;-65
2022/08/25 07:25:41;;;;;;;;;;;;;;;25.17;49.07;96876.84;4201979;28;5725;-64
2022/08/25 07:27:45;;;;;;;;;;;;;;;25.17;48.98;96878.75;4191769;28;5711;-65
2022/08/25 07:29:49;;;;;;;;;;;;;;;25.18;49.25;96875.75;4185017;28;5783;-65
2022/08/25 07:31:52;;;;;;;;;;;;;;;25.19;49.19;96880.06;4185327;28;5912;-64
2022/08/25 07:36:18;;;;;;;;;;;;;;;25.20;49.29;96872.75;4185561;28;5789;-63
2022/08/25 07:38:24;;;;;;;;;;;;;;;25.20;48.92;96876.28;4185387;28;7144;-64
2022/08/25 07:40:30;;;;;;;;;;;;;;;25.19;49.35;96876.56;4185194;28;5799;-64
2022/08/25 07:42:35;;;;;;;;;;;;;;;25.19;49.26;96871.97;4184952;28;5823;-64
2022/08/25 07:44:40;;;;;;;;;;;;;;;25.21;49.19;96879.78;4184741;28;5828;-64
2022/08/25 07:46:45;;;;;;;;;;;;;;;25.20;49.55;96883.59;4185085;28;5726;-66
2022/08/25 07:48:48;;;;;;;;;;;;;;;25.19;49.33;96881.97;4185153;28;5894;-64
2022/08/25 07:50:56;;;;;;;;;;;;;;;25.23;49.58;96880.28;4185160;28;5722;-64
2022/08/25 07:53:00;;;;;;;;;;;;;;;25.26;49.35;96879.75;4184430;28;5737;-64
2022/08/25 07:55:04;;;;;;;;;;;;;;;25.29;49.38;96881.06;4184774;28;5772;-64
2022/08/25 07:57:12;;;;;;;;;;;;;;;25.30;49.44;96888.09;4184995;28;5682;-64
2022/08/25 07:59:15;;;;;;;;;;;;;;;25.29;49.58;96886.47;4183251;28;5578;-64
2022/08/25 08:01:21;;;;;;;;;;;;;;;25.29;49.11;96887.28;4184924;28;5682;-64
2022/08/25 08:03:24;;;;;;;;;;;;;;;25.31;49.16;96889.72;4184934;28;5796;-64
2022/08/25 08:05:47;;;;;;;;;;;;;;;25.32;49.28;96897.53;4183786;28;5776;-64
2022/08/25 08:07:53;;;;;;;;;;;;;;;25.32;49.28;96886.72;4184977;28;5733;-64
2022/08/25 08:09:56;;;;;;;;;;;;;;;25.34;49.59;96891.84;4184844;28;5768;-64
2022/08/25 08:12:19;;;;;;;;;;;;;;;25.38;49.64;96891.00;4184727;28;5666;-64
2022/08/25 08:14:24;;;;;;;;;;;;;;;25.37;49.25;96889.38;4184417;28;5806;-64
2022/08/25 08:16:30;;;;;;;;;;;;;;;25.38;49.67;96884.78;4184495;28;5756;-65
2022/08/25 08:18:34;;;;;;;;;;;;;;;25.40;49.63;96888.00;4184534;28;6478;-65
2022/08/25 08:20:37;;;;;;;;;;;;;;;25.39;48.97;96889.09;4184670;28;5769;-64
2022/08/25 08:22:45;;;;;;;;;;;;;;;25.39;49.34;96889.91;4184499;28;5696;-64
2022/08/25 08:24:49;;;;;;;;;;;;;;;25.41;49.42;96886.91;4184597;28;5762;-64
2022/08/25 08:26:58;;;;;;;;;;;;;;;25.43;49.12;96898.25;4184512;28;5819;-64
2022/08/25 08:29:01;;;;;;;;;;;;;;;25.42;49.16;96899.34;4184164;28;5760;-64
2022/08/25 08:31:07;;;;;;;;;;;;;;;25.41;49.13;96895.84;4184383;28;5736;-64
2022/08/25 08:33:12;;;;;;;;;;;;;;;25.44;49.36;96895.25;4184145;28;5724;-64
2022/08/25 08:35:17;;;;;;;;;;;;;;;25.45;49.47;96893.34;4184461;28;5742;-64
2022/08/25 08:37:21;;;;;;;;;;;;;;;25.46;49.39;96895.75;4184246;28;5717;-64
2022/08/25 08:39:25;;;;;;;;;;;;;;;25.48;49.21;96898.19;4184134;28;5753;-64
2022/08/25 08:44:26;;;;;;;;;;;;;;;25.49;49.35;96891.72;4183742;28;5778;-64
2022/08/25 08:46:39;;;;;;;;;;;;;;;25.50;49.46;96883.28;4184122;28;5761;-64
2022/08/25 08:49:00;;;;;;;;;;;;;;;25.51;48.93;96879.50;4184311;28;5720;-64
2022/08/25 08:51:14;;;;;;;;;;;;;;;25.57;49.36;96887.53;4183989;28;5797;-64
2022/08/25 08:53:24;;;;;;;;;;;;;;;25.58;49.21;96889.16;4183654;28;5799;-65
2022/08/25 08:55:31;;;;;;;;;;;;;;;25.60;49.08;96881.59;4184223;28;5805;-64
2022/08/25 08:57:44;;;;;;;;;;;;;;;25.59;49.13;96875.34;4184320;28;5715;-64
2022/08/25 08:59:54;;;;;;;;;;;;;;;25.59;49.16;96878.03;4183703;28;5707;-64
2022/08/25 09:02:02;;;;;;;;;;;;;;;25.59;49.53;96874.53;4183983;28;5080;-64
2022/08/25 09:04:13;;;;;;;;;;;;;;;25.64;49.42;96885.31;4183992;28;5722;-64
2022/08/25 09:06:22;;;;;;;;;;;;;;;25.65;49.47;96879.63;4183985;28;5703;-65
2022/08/25 09:08:25;;;;;;;;;;;;;;;25.66;49.21;96877.72;4184054;28;5731;-65
2022/08/25 09:10:40;;;;;;;;;;;;;;;25.67;49.04;96873.91;4183876;28;5719;-65
2022/08/25 09:12:53;;;;;;;;;;;;;;;25.68;49.16;96861.97;4183366;28;5718;-65
2022/08/25 09:15:08;;;;;;;;;;;;;;;25.69;49.00;96864.44;4182199;28;5733;-65
2022/08/25 09:17:20;;;;;;;;;;;;;;;25.69;48.80;96872.53;4183621;28;5734;-65
2022/08/25 09:20:02;;;;;;;;;;;;;;;25.72;48.97;96868.47;4183790;28;5726;-65
2022/08/25 09:22:14;;;;;;;;;;;;;;;25.75;49.23;96867.91;4132522;28;5825;-65
2022/08/25 09:24:51;;;;;;;;;;;;;;;25.78;49.07;96864.59;4132486;28;6565;-65
2022/08/25 09:27:06;;;;;;;;;;;;;;;25.80;49.01;96867.81;4132565;28;5785;-65
2022/08/25 09:29:16;;;;;;;;;;;;;;;25.81;48.75;96867.53;4132278;28;5897;-65
2022/08/25 09:31:23;;;;;;;;;;;;;;;25.84;48.58;96868.88;4116234;28;5891;-65
2022/08/25 09:33:33;;;;;;;;;;;;;;;25.88;48.70;96872.63;4132612;28;5819;-65
2022/08/25 09:35:40;;;;;;;;;;;;;;;25.90;48.71;96866.91;4132504;28;5860;-65
2022/08/25 09:37:43;;;;;;;;;;;;;;;25.93;48.95;96875.25;4132275;28;5844;-65
2022/08/25 09:39:46;;;;;;;;;;;;;;;25.92;48.82;96867.41;4132381;28;5852;-65
2022/08/25 09:41:54;;;;;;;;;;;;;;;25.91;49.05;96871.22;4132117;28;5788;-65
2022/08/25 09:43:57;;;;;;;;;;;;;;;25.91;49.05;96872.03;4116044;28;5874;-65
2022/08/25 09:46:09;;;;;;;;;;;;;;;25.93;49.04;96869.81;4132416;28;5777;-65
2022/08/25 09:48:24;;;;;;;;;;;;;;;25.93;49.26;96869.81;4132456;28;5973;-65
2022/08/25 09:50:32;;;;;;;;;;;;;;;25.93;48.78;96861.69;4132318;28;5948;-65
2022/08/25 09:52:37;;;;;;;;;;;;;;;25.95;48.96;96864.94;4132159;28;5772;-66
2022/08/25 09:54:43;;;;;;;;;;;;;;;25.98;48.90;96864.38;4132219;28;5784;-65
2022/08/25 09:56:50;;;;;;;;;;;;;;;26.00;49.14;96864.06;4132692;28;6430;-65
2022/08/25 09:58:56;;;;;;;;;;;;;;;26.01;49.17;96854.84;4180278;28;5745;-65
2022/08/25 10:01:15;;;;;;;;;;;;;;;25.98;49.11;96856.25;4183400;28;5738;-65
2022/08/25 10:03:23;;;;;;;;;;;;;;;26.01;49.01;96855.66;4183408;28;5689;-65
2022/08/25 10:05:30;;;;;;;;;;;;;;;26.00;48.99;96859.47;4183189;28;5717;-65
2022/08/25 10:07:39;;;;;;;;;;;;;;;26.04;48.56;96854.25;4183414;28;5815;-65
2022/08/25 10:09:43;;;;;;;;;;;;;;;26.07;48.40;96848.28;4183428;28;5677;-65
2022/08/25 10:11:48;;;;;;;;;;;;;;;26.11;48.62;96855.53;4183335;28;6473;-65
2022/08/25 10:14:02;;;;;;;;;;;;;;;26.16;48.45;96840.28;4183028;28;5849;-65
2022/08/25 10:16:10;;;;;;;;;;;;;;;26.18;48.47;96833.50;4183173;28;5686;-65
2022/08/25 10:18:29;;;;;;;;;;;;;;;26.21;48.49;96835.63;4182042;28;5573;-64
2022/08/25 10:20:34;;;;;;;;;;;;;;;26.21;48.41;96827.50;4183469;28;5753;-64
2022/08/25 10:22:38;;;;;;;;;;;;;;;26.22;47.90;96831.00;4182933;28;5765;-65
2022/08/25 10:24:42;;;;;;;;;;;;;;;26.25;48.17;96825.00;4183451;28;5690;-64
2022/08/25 10:26:55;;;;;;;;;;;;;;;26.25;47.88;96825.78;4183179;28;5693;-65
2022/08/25 10:29:08;;;;;;;;;;;;;;;26.29;47.90;96823.31;4183585;28;5685;-64
2022/08/25 10:31:22;;;;;;;;;;;;;;;26.30;47.82;96816.81;4186054;28;7146;-64
2022/08/25 10:33:38;;;;;;;;;;;;;;;26.32;47.66;96809.19;4186173;28;5722;-65
2022/08/25 10:35:53;;;;;;;;;;;;;;;26.35;47.75;96816.72;4186248;28;5758;-65
2022/08/25 10:38:07;;;;;;;;;;;;;;;26.36;47.62;96808.31;4186096;28;5719;-65
2022/08/25 10:40:21;;;;;;;;;;;;;;;26.37;47.32;96815.34;4186258;28;5727;-65
2022/08/25 10:42:34;;;;;;;;;;;;;;;26.39;47.51;96813.19;4185901;28;6497;-65
2022/08/25 10:47:30;;;;;;;;;;;;;;;26.41;46.93;96799.31;4186241;28;5087;-65
2022/08/25 10:49:45;;;;;;;;;;;;;;;26.43;46.89;96794.41;4184660;28;6066;-65
2022/08/25 10:51:59;;;;;;;;;;;;;;;26.45;46.85;96791.41;4186065;28;5731;-65
2022/08/25 10:54:11;;;;;;;;;;;;;;;26.45;46.76;96785.97;4152827;28;5765;-65
2022/08/25 10:56:19;;;;;;;;;;;;;;;26.47;46.66;96787.28;4152902;28;6527;-65
2022/08/25 10:58:28;;;;;;;;;;;;;;;26.49;46.69;96785.09;4152841;28;5765;-65
2022/08/25 11:00:38;;;;;;;;;;;;;;;26.53;46.32;96774.47;4152900;28;5754;-64
2022/08/25 11:03:20;;;;;;;;;;;;;;;26.55;46.45;96775.78;4152832;28;5833;-64
2022/08/25 11:05:32;;;;;;;;;;;;;;;26.59;46.39;96768.66;4152660;28;5845;-64
2022/08/25 11:07:41;;;;;;;;;;;;;;;26.61;46.08;96773.78;4152829;28;5753;-64
2022/08/25 11:09:49;;;;;;;;;;;;;;;26.61;45.94;96771.88;4152871;28;5781;-64
2022/08/25 11:11:57;;;;;;;;;;;;;;;26.64;45.56;96763.16;4152837;28;5785;-63
2022/08/25 11:14:03;;;;;;;;;;;;;;;26.67;45.43;96769.91;4152371;28;5860;-64
2022/08/25 11:16:18;;;;;;;;;;;;;;;26.69;45.46;96762.25;4152950;28;5750;-64
2022/08/25 11:18:22;;;;;;;;;;;;;;;26.69;45.54;96762.25;4152910;28;5845;-64
2022/08/25 11:20:35;;;;;;;;;;;;;;;26.72;45.31;96763.56;4152651;28;5840;-64
2022/08/25 11:22:43;;;;;;;;;;;;;;;26.74;45.20;96753.25;4152974;28;5761;-64
2022/08/25 11:24:56;;;;;;;;;;;;;;;26.75;45.12;96749.44;4152688;28;5811;-64
2022/08/25 11:27:01;;;;;;;;;;;;;;;26.82;44.63;96747.13;4152644;28;5777;-64
2022/08/25 11:29:14;;;;;;;;;;;;;;;26.86;44.63;96748.16;4152299;28;5753;-64
2022/08/25 11:31:19;;;;;;;;;;;;;;;26.87;44.55;96747.06;4152532;28;5854;-65
2022/08/25 11:33:25;;;;;;;;;;;;;;;26.87;44.72;96741.63;4152487;28;5758;-65
2022/08/25 11:35:36;;;;;;;;;;;;;;;26.89;44.34;96745.66;4152545;28;5761;-65
2022/08/25 11:37:52;;;;;;;;;;;;;;;26.91;44.48;96739.91;4152321;28;7775;-64
2022/08/25 11:40:26;;;;;;;;;;;;;;;26.93;44.50;96740.41;4152051;28;5828;-63
2022/08/25 11:42:44;;;;;;;;;;;;;;;26.95;44.29;96733.59;4142524;28;5886;-64
2022/08/25 11:44:55;;;;;;;;;;;;;;;26.98;44.30;96733.00;4151871;28;5853;-64
2022/08/25 11:47:17;;;;;;;;;;;;;;;27.01;44.26;96731.59;4152120;28;5872;-64
2022/08/25 11:49:38;;;;;;;;;;;;;;;27.03;44.18;96729.41;4152116;28;5766;-64
2022/08/25 11:51:46;;;;;;;;;;;;;;;27.04;44.04;96731.00;4139497;28;5754;-64
2022/08/25 11:54:14;;;;;;;;;;;;;;;27.04;44.26;96731.00;4181181;28;5772;-64
2022/08/25 11:56:33;;;;;;;;;;;;;;;27.07;44.15;96724.19;4185136;28;5851;-64
2022/08/25 11:58:47;;;;;;;;;;;;;;;27.07;43.91;96735.03;4184511;28;5693;-64
2022/08/25 12:00:51;;;;;;;;;;;;;;;27.09;44.06;96728.22;4200197;28;5681;-64
2022/08/25 12:02:55;;;;;;;;;;;;;;;27.12;43.76;96730.31;4184929;28;5694;-64
2022/08/25 12:05:04;;;;;;;;;;;;;;;27.14;43.89;96727.31;4184948;28;5681;-65
2022/08/25 12:07:28;;;;;;;;;;;;;;;27.13;43.71;96723.78;4185079;28;5709;-64
2022/08/25 12:09:31;;;;;;;;;;;;;;;27.15;43.79;96729.72;4183459;28;5641;-64
2022/08/25 12:11:53;;;;;;;;;;;;;;;27.17;43.82;96735.66;4184815;28;5685;-65
2022/08/25 12:14:14;;;;;;;;;;;;;;;27.18;43.84;96731.84;4184361;28;5690;-65
2022/08/25 12:16:38;;;;;;;;;;;;;;;27.18;43.80;96725.59;4184673;28;6751;-64
2022/08/25 12:18:44;;;;;;;;;;;;;;;27.18;43.80;96723.72;4184627;28;6363;-65
2022/08/25 12:21:25;;;;;;;;;;;;;;;27.18;43.62;96721.00;4184481;28;5797;-65
2022/08/25 12:23:32;;;;;;;;;;;;;;;27.22;43.72;96724.72;4172103;28;5689;-65
2022/08/25 12:25:53;;;;;;;;;;;;;;;27.22;43.72;96716.56;4184520;28;5721;-65
2022/08/25 12:28:05;;;;;;;;;;;;;;;27.24;43.62;96725.19;4184500;28;5673;-65
2022/08/25 12:30:18;;;;;;;;;;;;;;;27.25;43.85;96721.38;4184251;28;5689;-64
2022/08/25 12:32:48;;;;;;;;;;;;;;;27.26;43.68;96720.28;4184442;28;5727;-65
2022/08/25 12:35:14;;;;;;;;;;;;;;;27.28;43.75;96715.34;4181855;28;6968;-64
2022/08/25 12:37:22;;;;;;;;;;;;;;;27.28;43.46;96709.91;4184504;28;8476;-64
2022/08/25 12:39:33;;;;;;;;;;;;;;;27.31;43.57;96713.97;4182915;28;5843;-64
2022/08/25 12:41:54;;;;;;;;;;;;;;;27.32;43.55;96709.34;4184459;28;6249;-64
2022/08/25 12:44:17;;;;;;;;;;;;;;;27.32;43.74;96701.19;4184106;28;5844;-65
2022/08/25 12:46:44;;;;;;;;;;;;;;;27.34;43.46;96701.69;4184350;28;5707;-64
2022/08/25 12:49:00;;;;;;;;;;;;;;;27.35;43.33;96692.44;4181508;28;5715;-65
2022/08/25 12:51:06;;;;;;;;;;;;;;;27.35;43.41;96695.16;4183967;28;5723;-64
2022/08/25 12:53:14;;;;;;;;;;;;;;;27.37;43.21;96691.00;4182850;28;5786;-64
2022/08/25 12:55:20;;;;;;;;;;;;;;;27.39;42.97;96690.72;4182851;28;5713;-65
2022/08/25 12:57:36;;;;;;;;;;;;;;;27.40;42.95;96687.69;4183970;28;6384;-65
2022/08/25 12:59:49;;;;;;;;;;;;;;;27.43;43.04;96680.88;4183576;28;5779;-65
2022/08/25 13:02:27;;;;;;;;;;;;;;;27.46;42.97;96680.25;4183826;28;5755;-64
2022/08/25 13:05:08;;;;;;;;;;;;;;;27.48;42.71;96676.13;4184235;28;5718;-64
2022/08/25 13:07:28;;;;;;;;;;;;;;;27.51;42.66;96661.13;4162333;28;5719;-65
2022/08/25 13:10:17;;;;;;;;;;;;;;;27.52;42.62;96665.44;4183632;28;6849;-65
2022/08/25 13:12:30;;;;;;;;;;;;;;;27.54;42.84;96669.50;4183622;28;5706;-64
2022/08/25 13:14:38;;;;;;;;;;;;;;;27.57;42.65;96665.34;4183465;28;5840;-64
2022/08/25 13:16:54;;;;;;;;;;;;;;;27.58;42.65;96656.09;4183961;28;5076;-64
2022/08/25 13:19:00;;;;;;;;;;;;;;;27.60;42.63;96662.03;4183624;28;5782;-66
2022/08/25 13:21:09;;;;;;;;;;;;;;;27.59;42.66;96654.97;4183704;28;6411;-65
2022/08/25 13:23:21;;;;;;;;;;;;;;;27.61;42.59;96654.66;4183440;28;5718;-65
2022/08/25 13:25:27;;;;;;;;;;;;;;;27.61;42.94;96652.75;4183603;28;5707;-65
2022/08/25 13:27:36;;;;;;;;;;;;;;;27.63;42.67;96649.72;4182133;28;5646;-64
2022/08/25 13:29:50;;;;;;;;;;;;;;;27.63;42.37;96647.81;4183422;28;5774;-64
2022/08/25 13:31:57;;;;;;;;;;;;;;;27.64;42.35;96643.22;4198640;28;8491;-65
2022/08/25 13:34:05;;;;;;;;;;;;;;;27.63;42.52;96647.03;4181925;28;5662;-65
2022/08/25 13:38:38;;;;;;;;;;;;;;;27.64;42.35;96640.50;4183322;28;5798;-65
2022/08/25 13:40:41;;;;;;;;;;;;;;;27.64;42.29;96635.88;4183467;28;5758;-65
2022/08/25 13:42:50;;;;;;;;;;;;;;;27.68;42.42;96636.09;4183272;28;5829;-65
2022/08/25 13:44:58;;;;;;;;;;;;;;;27.69;42.20;96633.06;4183341;28;5834;-65
2022/08/25 13:47:07;;;;;;;;;;;;;;;27.71;42.10;96624.59;4183374;28;5726;-64
2022/08/25 13:49:10;;;;;;;;;;;;;;;27.71;42.17;96625.41;4183645;28;5814;-65
2022/08/25 13:51:21;;;;;;;;;;;;;;;27.72;41.97;96616.16;4183567;28;6497;-65
2022/08/25 13:53:26;;;;;;;;;;;;;;;27.77;42.08;96617.97;4183078;28;5924;-65
2022/08/25 13:55:36;;;;;;;;;;;;;;;27.78;41.96;96617.66;4183347;28;5686;-65
2022/08/25 13:57:54;;;;;;;;;;;;;;;27.83;41.95;96627.56;4183309;28;5709;-65
2022/08/25 14:00:03;;;;;;;;;;;;;;;27.83;41.64;96620.22;4181681;28;5590;-65
2022/08/25 14:02:09;;;;;;;;;;;;;;;27.84;41.82;96621.84;4183365;28;5788;-65
2022/08/25 14:04:26;;;;;;;;;;;;;;;27.87;41.90;96627.78;4184607;28;5780;-65
2022/08/25 14:06:30;;;;;;;;;;;;;;;27.87;41.87;96622.34;4186816;28;5783;-64
2022/08/25 14:08:38;;;;;;;;;;;;;;;27.93;42.11;96623.81;4185420;28;5558;-65
2022/08/25 14:10:43;;;;;;;;;;;;;;;27.94;42.03;96628.13;4186478;28;5765;-65
2022/08/25 14:12:48;;;;;;;;;;;;;;;27.95;41.89;96616.97;4186514;28;5776;-65
2022/08/25 14:15:00;;;;;;;;;;;;;;;27.96;41.91;96612.31;4186223;28;5710;-65
2022/08/25 14:17:07;;;;;;;;;;;;;;;27.94;42.12;96607.22;4186716;28;5776;-65
2022/08/25 14:19:31;;;;;;;;;;;;;;;27.92;42.01;96609.44;4186893;28;5737;-65
2022/08/25 14:21:34;;;;;;;;;;;;;;;27.92;42.00;96611.34;4186691;28;5786;-65
2022/08/25 14:23:42;;;;;;;;;;;;;;;27.92;42.06;96604.00;4183521;28;6400;-65
2022/08/25 14:25:46;;;;;;;;;;;;;;;27.91;42.12;96605.13;4178919;28;6792;-65
2022/08/25 14:27:56;;;;;;;;;;;;;;;27.93;41.94;96607.53;4186441;28;5731;-64
2022/08/25 14:30:17;;;;;;;;;;;;;;;27.98;42.01;96596.53;4179843;28;5870;-65
2022/08/25 14:32:30;;;;;;;;;;;;;;;28.00;42.16;96597.03;4185137;28;5809;-65
2022/08/25 14:34:36;;;;;;;;;;;;;;;28.04;41.97;96592.56;4181273;28;5107;-64
2022/08/25 14:36:41;;;;;;;;;;;;;;;28.03;42.12;96590.97;4181464;28;5821;-64
2022/08/25 14:38:46;;;;;;;;;;;;;;;28.01;42.08;96590.47;4184856;28;5745;-65
2022/08/25 14:40:57;;;;;;;;;;;;;;;27.99;42.20;96588.09;4185041;28;5215;-64
2022/08/25 14:43:01;;;;;;;;;;;;;;;27.99;42.23;96598.16;4184683;28;5795;-65
2022/08/25 14:45:05;;;;;;;;;;;;;;;27.99;42.16;96587.28;4184272;28;5798;-64
2022/08/25 14:47:10;;;;;;;;;;;;;;;28.03;42.36;96582.81;4183276;28;5802;-64
2022/08/25 14:49:18;;;;;;;;;;;;;;;28.08;42.65;96582.69;4177598;28;5804;-64
2022/08/25 14:51:28;;;;;;;;;;;;;;;28.12;42.64;96586.41;4183508;28;5714;-64
2022/08/25 14:53:32;;;;;;;;;;;;;;;28.13;42.80;96583.38;4182448;28;5711;-65
2022/08/25 14:55:35;;;;;;;;;;;;;;;28.13;42.83;96579.84;4183051;28;5754;-65
2022/08/25 14:57:38;;;;;;;;;;;;;;;28.08;42.68;96579.97;4184301;28;5735;-64
2022/08/25 14:59:41;;;;;;;;;;;;;;;28.07;42.57;96576.44;4184105;28;5855;-65
2022/08/25 15:01:45;;;;;;;;;;;;;;;28.11;42.70;96579.38;4180552;28;5723;-63
2022/08/25 15:03:56;;;;;;;;;;;;;;;28.11;42.76;96576.66;4185467;28;5100;-66
2022/08/25 15:06:00;;;;;;;;;;;;;;;28.10;43.00;96575.84;4185724;28;6367;-68
2022/08/25 15:10:24;;;;;;;;;;;;;;;28.12;43.14;96573.63;4183898;28;5658;-67
2022/08/25 15:12:28;;;;;;;;;;;;;;;28.17;43.16;96566.44;4183818;28;5813;-68
2022/08/25 15:14:49;;;;;;;;;;;;;;;28.20;43.39;96569.34;4184443;28;5723;-67
2022/08/25 15:16:54;;;;;;;;;;;;;;;28.22;43.38;96569.84;4185615;28;5771;-68
2022/08/25 15:18:59;;;;;;;;;;;;;;;28.24;43.46;96562.16;4184038;28;5765;-68
2022/08/25 15:21:05;;;;;;;;;;;;;;;28.24;43.76;96558.66;4185388;28;5714;-67
2022/08/25 15:23:08;;;;;;;;;;;;;;;28.23;43.74;96557.84;4185356;28;5881;-67
2022/08/25 15:25:11;;;;;;;;;;;;;;;28.25;43.84;96557.53;4171069;28;5093;-68
2022/08/25 15:27:14;;;;;;;;;;;;;;;28.26;43.95;96554.50;4179939;28;5745;-68
2022/08/25 15:29:19;;;;;;;;;;;;;;;28.28;43.99;96551.50;4178946;28;5785;-68
2022/08/25 15:31:23;;;;;;;;;;;;;;;28.24;44.09;96555.94;4182437;28;5737;-66
2022/08/25 15:33:25;;;;;;;;;;;;;;;28.21;44.15;96551.94;4175081;28;5720;-67
2022/08/25 15:35:30;;;;;;;;;;;;;;;28.18;44.16;96549.00;4182119;28;5727;-67
2022/08/25 15:37:34;;;;;;;;;;;;;;;28.19;44.16;96550.59;4176350;28;5934;-67
2022/08/25 15:39:38;;;;;;;;;;;;;;;28.20;44.19;96544.06;4183958;28;6332;-67
2022/08/25 15:41:41;;;;;;;;;;;;;;;28.19;44.15;96548.69;4184826;28;5794;-67
2022/08/25 15:43:44;;;;;;;;;;;;;;;28.19;44.15;96545.16;4180428;28;5763;-67
2022/08/25 15:45:48;;;;;;;;;;;;;;;28.19;44.07;96548.69;4181257;28;5817;-66
2022/08/25 15:47:52;;;;;;;;;;;;;;;28.22;44.21;96548.09;4187072;28;5753;-67
2022/08/25 15:50:03;;;;;;;;;;;;;;;28.22;44.22;96542.66;4184191;28;5847;-67
2022/08/25 15:52:07;;;;;;;;;;;;;;;28.24;44.25;96545.84;4183989;28;5872;-67
2022/08/25 15:54:10;;;;;;;;;;;;;;;28.26;44.08;96537.38;4184207;28;6218;-68
2022/08/25 15:56:17;;;;;;;;;;;;;;;28.27;43.97;96539.81;4183557;28;5716;-68
2022/08/25 15:58:28;;;;;;;;;;;;;;;28.26;44.04;96538.19;4180874;28;6389;-66
2022/08/25 16:00:32;;;;;;;;;;;;;;;28.28;44.10;96535.97;4181055;28;5779;-67
2022/08/25 16:02:35;;;;;;;;;;;;;;;28.29;44.06;96539.50;4179871;28;5842;-71
2022/08/25 16:04:37;;;;;;;;;;;;;;;28.29;44.00;96539.50;4183713;28;5820;-72
2022/08/25 16:06:40;;;;;;;;;;;;;;;28.27;44.05;96545.25;4183460;28;5708;-71
2022/08/25 16:08:45;;;;;;;;;;;;;;;28.30;44.01;96539.19;4183214;28;6413;-69
2022/08/25 16:10:48;;;;;;;;;;;;;;;28.36;44.04;96537.94;4183408;28;6215;-69
2022/08/25 16:12:51;;;;;;;;;;;;;;;28.37;44.15;96538.75;4183161;28;5759;-72
2022/08/25 16:14:54;;;;;;;;;;;;;;;28.38;44.09;96524.84;4182739;28;5731;-72
2022/08/25 16:16:57;;;;;;;;;;;;;;;28.42;44.15;96530.44;4176838;28;5922;-69
2022/08/25 16:19:01;;;;;;;;;;;;;;;28.40;44.09;96536.19;4179371;28;5814;-69
2022/08/25 16:21:08;;;;;;;;;;;;;;;28.41;44.23;96535.06;4177997;28;5931;-70
2022/08/25 16:23:16;;;;;;;;;;;;;;;28.45;44.20;96531.75;4183601;28;5703;-69
2022/08/25 16:25:21;;;;;;;;;;;;;;;28.49;44.24;96530.78;4185008;28;5727;-70
2022/08/25 16:27:24;;;;;;;;;;;;;;;28.49;44.34;96522.63;4181131;28;5735;-71
2022/08/25 16:29:27;;;;;;;;;;;;;;;28.54;44.29;96521.69;4173685;28;5812;-71
2022/08/25 16:31:37;;;;;;;;;;;;;;;28.49;44.46;96530.00;4176365;28;6084;-77
2022/08/25 16:33:41;;;;;;;;;;;;;;;28.43;44.42;96510.31;4178037;28;5868;-71
2022/08/25 16:35:46;;;;;;;;;;;;;;;28.37;44.54;96514.28;4182722;28;5941;-72
2022/08/25 16:37:50;;;;;;;;;;;;;;;28.35;44.88;96511.88;4181663;28;5637;-73
2022/08/25 16:39:56;;;;;;;;;;;;;;;28.31;44.64;96512.81;4182990;28;5718;-69
2022/08/25 16:42:02;;;;;;;;;;;;;;;28.27;44.64;96518.06;4182836;28;5719;-73
2022/08/25 16:44:07;;;;;;;;;;;;;;;28.27;44.79;96518.06;4182803;28;5831;-70
2022/08/25 16:46:15;;;;;;;;;;;;;;;28.24;44.62;96510.53;4179838;28;5782;-72
2022/08/25 16:48:19;;;;;;;;;;;;;;;28.21;44.84;96508.44;4179383;28;5111;-72
2022/08/25 16:50:24;;;;;;;;;;;;;;;28.19;44.76;96509.84;4178268;28;5772;-69
2022/08/25 16:57:08;;;;;;;;;;;;;;;28.13;44.78;96514.63;4182924;28;5828;-70